createdAt,value
2018-02-13T00:01:21.041Z,11.60
2018-02-13T00:03:48.570Z,31.42
2018-02-13T00:06:16.053Z,12.43
2018-02-13T00:08:43.594Z,8.90
2018-02-13T00:11:11.624Z,21.48
2018-02-13T00:13:39.146Z,14.68
2018-02-13T00:16:06.649Z,11.68
2018-02-13T00:18:34.129Z,16.05
2018-02-13T00:21:01.616Z,10.18
2018-02-13T00:23:29.135Z,10.38
2018-02-13T00:25:56.656Z,14.90
2018-02-13T00:28:24.153Z,12.88
2018-02-13T00:30:51.671Z,17.85
2018-02-13T00:33:19.169Z,18.23
2018-02-13T00:35:47.458Z,14.38
2018-02-13T00:38:15.734Z,16.55
2018-02-13T00:40:44.007Z,13.35
2018-02-13T00:43:12.256Z,13.38
2018-02-13T00:45:39.777Z,15.77
2018-02-13T00:48:07.282Z,16.30
2018-02-13T00:50:34.789Z,15.10
2018-02-13T00:53:03.080Z,13.05
2018-02-13T00:55:30.622Z,22.35
2018-02-13T00:57:59.646Z,13.70
2018-02-13T01:00:27.276Z,14.95
2018-02-13T01:02:54.869Z,11.65
2018-02-13T01:05:22.450Z,10.82
2018-02-13T01:07:49.983Z,11.55
2018-02-13T01:10:18.261Z,15.63
2018-02-13T01:12:47.501Z,7.05
2018-02-13T01:15:15.022Z,9.15
2018-02-13T01:17:43.321Z,20.50
2018-02-13T01:20:11.649Z,16.05
2018-02-13T01:22:39.128Z,14.77
2018-02-13T01:25:06.613Z,19.73
2018-02-13T01:27:34.927Z,12.93
2018-02-13T01:30:02.444Z,17.60
2018-02-13T01:32:29.984Z,11.75
2018-02-13T01:34:57.474Z,11.65
2018-02-13T01:37:24.968Z,12.37
2018-02-13T01:39:52.474Z,15.02
2018-02-13T01:42:19.976Z,13.05
2018-02-13T01:44:48.228Z,14.25
2018-02-13T01:47:15.753Z,11.18
2018-02-13T01:49:43.243Z,13.57
2018-02-13T01:52:10.772Z,7.55
2018-02-13T01:54:38.255Z,10.13
2018-02-13T01:57:05.762Z,10.68
2018-02-13T01:59:34.015Z,8.55
2018-02-13T02:02:01.548Z,10.38
2018-02-13T02:04:29.053Z,12.23
2018-02-13T02:06:56.556Z,13.30
2018-02-13T02:09:24.066Z,14.87
2018-02-13T02:11:51.565Z,12.35
2018-02-13T02:14:19.853Z,14.90
2018-02-13T02:16:48.115Z,12.63
2018-02-13T02:19:16.476Z,16.17
2018-02-13T02:21:44.036Z,10.45
2018-02-13T02:24:11.528Z,29.40
2018-02-13T02:26:39.038Z,12.40
2018-02-13T02:29:06.527Z,16.30
2018-02-13T02:31:34.558Z,15.20
2018-02-13T02:34:02.059Z,12.52
2018-02-13T02:36:30.785Z,19.80
2018-02-13T02:38:58.284Z,14.87
2018-02-13T02:41:25.848Z,11.80
2018-02-13T02:43:53.322Z,12.50
2018-02-13T02:46:20.812Z,15.23
2018-02-13T02:48:48.331Z,15.40
2018-02-13T02:51:15.829Z,13.95
2018-02-13T02:53:43.363Z,15.15
2018-02-13T02:56:10.844Z,18.70
2018-02-13T02:58:38.345Z,16.30
2018-02-13T03:01:05.903Z,12.88
2018-02-13T03:03:33.402Z,17.15
2018-02-13T03:06:01.727Z,17.05
2018-02-13T03:08:29.216Z,15.98
2018-02-13T03:10:56.711Z,14.27
2018-02-13T03:13:24.213Z,15.50
2018-02-13T03:15:51.707Z,15.93
2018-02-13T03:18:19.200Z,13.77
2018-02-13T03:20:46.684Z,15.27
2018-02-13T03:23:14.207Z,18.52
2018-02-13T03:25:41.734Z,12.98
2018-02-13T03:28:09.232Z,17.62
2018-02-13T03:30:36.756Z,13.98
2018-02-13T03:33:04.271Z,14.57
2018-02-13T03:35:32.615Z,15.40
2018-02-13T03:38:00.111Z,15.05
2018-02-13T03:40:28.391Z,12.07
2018-02-13T03:42:59.084Z,13.10
2018-02-13T03:45:26.584Z,15.32
2018-02-13T03:47:54.136Z,18.70
2018-02-13T03:50:22.388Z,17.17
2018-02-13T03:52:49.885Z,17.40
2018-02-13T03:55:17.458Z,19.30
2018-02-13T03:57:45.721Z,17.70
2018-02-13T04:00:13.219Z,15.88
2018-02-13T04:02:41.502Z,16.90
2018-02-13T04:05:09.001Z,18.30
2018-02-13T04:07:36.498Z,21.02
2018-02-13T04:10:03.993Z,17.15
2018-02-13T04:12:31.489Z,24.63
2018-02-13T04:14:59.089Z,14.35
2018-02-13T04:17:26.568Z,17.62
2018-02-13T04:19:54.836Z,23.67
2018-02-13T04:22:22.334Z,20.50
2018-02-13T04:24:49.834Z,18.83
2018-02-13T04:27:17.333Z,22.30
2018-02-13T04:29:45.589Z,15.48
2018-02-13T04:32:13.110Z,27.65
2018-02-13T04:34:40.612Z,21.17
2018-02-13T04:37:08.117Z,21.20
2018-02-13T04:39:36.399Z,20.90
2018-02-13T04:42:04.658Z,21.52
2018-02-13T04:44:32.158Z,17.02
2018-02-13T04:46:59.636Z,15.45
2018-02-13T04:49:27.141Z,20.10
2018-02-13T04:51:54.635Z,20.52
2018-02-13T04:54:22.140Z,21.30
2018-02-13T04:56:49.639Z,21.02
2018-02-13T04:59:17.142Z,20.60
2018-02-13T05:01:44.655Z,17.87
2018-02-13T05:04:13.753Z,24.87
2018-02-13T05:06:41.767Z,21.05
2018-02-13T05:09:09.291Z,18.75
2018-02-13T05:11:36.790Z,29.02
2018-02-13T05:14:04.295Z,19.10
2018-02-13T05:16:31.773Z,19.00
2018-02-13T05:18:59.273Z,19.25
2018-02-13T05:21:26.767Z,21.75
2018-02-13T05:23:54.268Z,17.83
2018-02-13T05:26:21.768Z,24.65
2018-02-13T05:28:49.260Z,21.42
2018-02-13T05:31:16.758Z,29.02
2018-02-13T05:33:44.259Z,30.70
2018-02-13T05:36:11.754Z,20.52
2018-02-13T05:38:39.240Z,21.77
2018-02-13T05:41:06.748Z,24.50
2018-02-13T05:43:34.232Z,29.02
2018-02-13T05:46:01.755Z,26.58
2018-02-13T05:48:30.026Z,31.42
2018-02-13T05:50:57.577Z,24.75
2018-02-13T05:53:25.025Z,26.02
2018-02-13T05:55:52.528Z,23.52
2018-02-13T05:58:20.842Z,24.50
2018-02-13T06:00:48.434Z,30.95
2018-02-13T06:03:16.033Z,28.65
2018-02-13T06:05:44.301Z,29.95
2018-02-13T06:08:11.840Z,28.50
2018-02-13T06:10:39.364Z,28.55
2018-02-13T06:13:06.883Z,38.65
2018-02-13T06:15:34.389Z,23.75
2018-02-13T06:18:01.899Z,26.62
2018-02-13T06:20:29.400Z,28.52
2018-02-13T06:22:57.704Z,29.73
2018-02-13T06:25:25.225Z,26.20
2018-02-13T06:27:53.489Z,25.58
2018-02-13T06:30:20.988Z,26.80
2018-02-13T06:32:49.250Z,25.80
2018-02-13T06:35:16.763Z,26.10
2018-02-13T06:37:44.294Z,31.48
2018-02-13T06:40:12.555Z,31.85
2018-02-13T06:42:40.058Z,27.83
2018-02-13T06:45:07.586Z,26.02
2018-02-13T06:47:35.890Z,28.40
2018-02-13T06:50:03.464Z,30.30
2018-02-13T06:52:30.935Z,34.25
2018-02-13T06:54:58.425Z,32.30
2018-02-13T06:57:25.942Z,39.10
2018-02-13T06:59:54.195Z,40.38
2018-02-13T07:02:21.695Z,33.30
2018-02-13T07:04:49.191Z,35.15
2018-02-13T07:07:16.683Z,54.30
2018-02-13T07:09:44.195Z,42.38
2018-02-13T07:12:11.923Z,41.47
2018-02-13T07:14:39.415Z,36.80
2018-02-13T07:17:06.924Z,31.33
2018-02-13T07:19:34.444Z,29.17
2018-02-13T07:22:02.011Z,26.73
2018-02-13T07:24:29.516Z,29.75
2018-02-13T07:26:57.013Z,38.13
2018-02-13T07:29:25.253Z,32.20
2018-02-13T07:31:52.849Z,31.25
2018-02-13T07:34:21.153Z,26.45
2018-02-13T07:36:49.356Z,32.30
2018-02-13T07:39:16.850Z,30.52
2018-02-13T07:41:44.356Z,35.70
2018-02-13T07:44:11.876Z,37.08
2018-02-13T07:46:39.380Z,37.20
2018-02-13T07:49:07.632Z,40.15
2018-02-13T07:51:35.899Z,36.67
2018-02-13T07:54:03.407Z,42.15
2018-02-13T07:56:30.971Z,38.20
2018-02-13T07:58:58.491Z,36.70
2018-02-13T08:01:26.006Z,34.88
2018-02-13T08:03:53.544Z,38.58
2018-02-13T08:06:21.826Z,41.83
2018-02-13T08:08:50.514Z,35.65
2018-02-13T08:11:18.020Z,33.95
2018-02-13T08:13:45.807Z,31.02
2018-02-13T08:16:13.310Z,41.25
2018-02-13T08:18:41.604Z,39.00
2018-02-13T08:21:09.892Z,35.80
2018-02-13T08:23:37.396Z,44.63
2018-02-13T08:26:04.915Z,33.25
2018-02-13T08:28:33.355Z,24.98
2018-02-13T08:31:01.980Z,32.63
2018-02-13T08:33:29.503Z,38.88
2018-02-13T08:35:57.085Z,31.37
2018-02-13T08:38:25.370Z,39.58
2018-02-13T08:40:52.868Z,36.15
2018-02-13T08:43:20.449Z,30.50
2018-02-13T08:45:47.947Z,33.80
2018-02-13T08:48:15.470Z,34.47
2018-02-13T08:50:42.984Z,39.20
2018-02-13T08:53:10.521Z,40.33
2018-02-13T08:55:38.050Z,31.05
2018-02-13T08:58:05.570Z,26.83
2018-02-13T09:00:33.102Z,38.72
2018-02-13T09:03:00.616Z,33.95
2018-02-13T09:05:28.882Z,28.50
2018-02-13T09:07:56.409Z,36.92
2018-02-13T09:10:23.921Z,36.10
2018-02-13T09:12:52.538Z,29.27
2018-02-13T09:15:20.041Z,32.72
2018-02-13T09:17:47.550Z,30.33
2018-02-13T09:20:15.847Z,34.08
2018-02-13T09:22:44.079Z,30.62
2018-02-13T09:25:11.589Z,42.47
2018-02-13T09:27:39.730Z,39.55
2018-02-13T09:30:08.006Z,34.20
2018-02-13T09:32:35.500Z,35.03
2018-02-13T09:35:03.024Z,35.65
2018-02-13T09:37:30.530Z,36.03
2018-02-13T09:39:58.042Z,27.05
2018-02-13T09:42:25.562Z,33.10
2018-02-13T09:44:53.093Z,32.80
2018-02-13T09:47:21.377Z,24.92
2018-02-13T09:49:49.653Z,32.97
2018-02-13T09:52:17.182Z,30.62
2018-02-13T09:54:45.242Z,27.37
2018-02-13T09:57:12.770Z,28.75
2018-02-13T09:59:41.044Z,42.95
2018-02-13T10:02:09.328Z,49.38
2018-02-13T10:04:37.641Z,31.35
2018-02-13T10:07:05.156Z,43.85
2018-02-13T10:09:32.689Z,34.40
2018-02-13T10:12:00.192Z,33.47
2018-02-13T10:14:28.479Z,29.70
2018-02-13T10:16:56.754Z,35.58
2018-02-13T10:19:25.031Z,32.78
2018-02-13T10:21:53.307Z,35.47
2018-02-13T10:24:20.845Z,37.63
2018-02-13T10:26:48.352Z,31.47
2018-02-13T10:29:16.633Z,29.20
2018-02-13T10:31:44.893Z,33.23
2018-02-13T10:34:13.905Z,33.10
2018-02-13T10:36:42.183Z,38.50
2018-02-13T10:39:10.456Z,36.97
2018-02-13T10:41:38.746Z,37.10
2018-02-13T10:44:07.008Z,51.80
2018-02-13T10:46:34.536Z,26.67
2018-02-13T10:49:02.028Z,36.93
2018-02-13T10:51:29.528Z,37.17
2018-02-13T10:53:57.785Z,31.00
2018-02-13T10:56:25.286Z,27.07
2018-02-13T10:58:52.763Z,29.47
2018-02-13T11:01:25.865Z,31.00
2018-02-13T11:03:53.351Z,22.00
2018-02-13T11:06:21.865Z,32.27
2018-02-13T11:08:50.125Z,30.57
2018-02-13T11:11:17.628Z,27.23
2018-02-13T11:13:45.123Z,22.57
2018-02-13T11:16:12.642Z,26.10
2018-02-13T11:18:41.158Z,28.43
2018-02-13T11:21:08.697Z,20.93
2018-02-13T11:23:36.960Z,27.13
2018-02-13T11:26:05.239Z,27.47
2018-02-13T11:28:32.737Z,20.33
2018-02-13T11:31:01.606Z,21.33
2018-02-13T11:33:29.891Z,22.97
2018-02-13T11:35:58.243Z,26.13
2018-02-13T11:38:25.744Z,30.53
2018-02-13T11:40:53.245Z,17.83
2018-02-13T11:43:20.736Z,21.20
2018-02-13T11:45:48.373Z,17.27
2018-02-13T11:48:15.893Z,19.73
2018-02-13T11:50:44.169Z,18.63
2018-02-13T11:53:12.498Z,27.70
2018-02-13T11:55:40.036Z,27.40
2018-02-13T11:58:07.540Z,19.03
2018-02-13T12:00:35.064Z,15.73
2018-02-13T12:03:02.569Z,16.47
2018-02-13T12:05:30.097Z,22.63
2018-02-13T12:07:57.736Z,26.90
2018-02-13T12:10:26.024Z,19.60
2018-02-13T12:12:53.573Z,19.50
2018-02-13T12:15:21.110Z,15.83
2018-02-13T12:17:48.641Z,20.83
2018-02-13T12:20:16.387Z,21.13
2018-02-13T12:22:44.018Z,23.40
2018-02-13T12:25:11.544Z,22.60
2018-02-13T12:27:39.075Z,27.53
2018-02-13T12:30:07.429Z,20.63
2018-02-13T12:32:34.949Z,24.57
2018-02-13T12:35:02.474Z,20.17
2018-02-13T12:37:30.882Z,19.63
2018-02-13T12:39:58.415Z,23.73
2018-02-13T12:42:26.673Z,18.80
2018-02-13T12:44:54.193Z,29.97
2018-02-13T12:47:21.700Z,22.27
2018-02-13T12:49:49.208Z,27.13
2018-02-13T12:52:16.711Z,21.93
2018-02-13T12:54:44.214Z,21.50
2018-02-13T12:57:11.706Z,22.80
2018-02-13T12:59:39.226Z,21.40
2018-02-13T13:02:06.752Z,23.40
2018-02-13T13:04:34.262Z,17.50
2018-02-13T13:07:01.792Z,19.60
2018-02-13T13:09:29.381Z,20.50
2018-02-13T13:11:56.915Z,20.23
2018-02-13T13:14:24.435Z,22.27
2018-02-13T13:16:52.716Z,19.80
2018-02-13T13:19:20.974Z,20.90
2018-02-13T13:21:48.495Z,21.17
2018-02-13T13:24:16.008Z,14.17
2018-02-13T13:26:44.289Z,37.23
2018-02-13T13:29:12.582Z,27.33
2018-02-13T13:31:40.905Z,20.43
2018-02-13T13:34:08.389Z,20.50
2018-02-13T13:36:35.892Z,24.97
2018-02-13T13:39:04.189Z,28.17
2018-02-13T13:41:31.748Z,21.50
2018-02-13T13:43:59.258Z,23.43
2018-02-13T13:46:27.697Z,23.70
2018-02-13T13:48:55.229Z,22.90
2018-02-13T13:51:22.741Z,20.47
2018-02-13T13:53:50.313Z,23.23
2018-02-13T13:56:17.818Z,26.10
2018-02-13T13:58:46.270Z,18.60
2018-02-13T14:01:13.802Z,18.57
2018-02-13T14:03:41.304Z,19.60
2018-02-13T14:06:08.821Z,19.00
2018-02-13T14:08:36.422Z,18.10
2018-02-13T14:11:03.935Z,15.00
2018-02-13T14:13:32.218Z,14.23
2018-02-13T14:16:00.527Z,22.80
2018-02-13T14:18:28.025Z,23.90
2018-02-13T14:20:55.551Z,25.90
2018-02-13T14:23:23.052Z,15.03
2018-02-13T14:25:50.587Z,18.10
2018-02-13T14:28:18.088Z,16.70
2018-02-13T14:30:45.601Z,20.63
2018-02-13T14:33:13.120Z,17.43
2018-02-13T14:35:40.648Z,16.77
2018-02-13T14:38:08.233Z,23.90
2018-02-13T14:40:35.749Z,15.00
2018-02-13T14:43:04.857Z,13.63
2018-02-13T14:45:32.383Z,15.10
2018-02-13T14:47:59.889Z,21.43
2018-02-13T14:50:27.478Z,16.43
2018-02-13T14:52:54.995Z,14.07
2018-02-13T14:55:23.275Z,16.47
2018-02-13T14:57:50.792Z,16.77
2018-02-13T15:00:18.320Z,18.03
2018-02-13T15:02:45.856Z,16.57
2018-02-13T15:05:14.118Z,15.80
2018-02-13T15:07:41.753Z,19.33
2018-02-13T15:10:09.311Z,15.60
2018-02-13T15:12:36.868Z,15.30
2018-02-13T15:15:14.270Z,20.63
2018-02-13T15:17:41.793Z,15.50
2018-02-13T15:20:10.104Z,17.30
2018-02-13T15:22:37.620Z,23.40
2018-02-13T15:25:05.118Z,20.70
2018-02-13T15:27:33.709Z,22.17
2018-02-13T15:30:01.284Z,28.43
2018-02-13T15:32:28.875Z,20.33
2018-02-13T15:34:56.357Z,16.13
2018-02-13T15:37:23.887Z,20.93
2018-02-13T15:39:51.434Z,21.53
2018-02-13T15:42:19.066Z,22.93
2018-02-13T15:44:47.360Z,13.20
2018-02-13T15:47:17.538Z,15.00
2018-02-13T15:49:45.104Z,42.33
2018-02-13T15:52:12.657Z,25.23
2018-02-13T15:54:40.156Z,21.47
2018-02-13T15:57:07.656Z,22.40
2018-02-13T15:59:35.184Z,30.30
2018-02-13T16:02:02.815Z,23.90
2018-02-13T16:04:30.354Z,31.73
2018-02-13T16:06:57.892Z,24.10
2018-02-13T16:09:26.172Z,22.03
2018-02-13T16:11:54.490Z,22.77
2018-02-13T16:14:22.012Z,22.57
2018-02-13T16:16:50.290Z,16.10
2018-02-13T16:19:18.089Z,29.57
2018-02-13T16:21:45.658Z,25.63
2018-02-13T16:24:13.182Z,22.70
2018-02-13T16:26:40.726Z,22.87
2018-02-13T16:29:08.205Z,39.63
2018-02-13T16:31:36.513Z,22.00
2018-02-13T16:34:04.803Z,25.37
2018-02-13T16:36:32.326Z,22.60
2018-02-13T16:38:59.861Z,17.47
2018-02-13T16:41:27.382Z,23.00
2018-02-13T16:43:55.639Z,19.73
2018-02-13T16:46:23.157Z,14.67
2018-02-13T16:48:50.660Z,27.53
2018-02-13T16:51:18.230Z,25.60
2018-02-13T16:53:46.536Z,22.83
2018-02-13T16:56:14.847Z,35.47
2018-02-13T16:58:42.373Z,27.83
2018-02-13T17:01:11.510Z,23.57
2018-02-13T17:03:39.032Z,27.43
2018-02-13T17:06:07.298Z,28.00
2018-02-13T17:08:35.680Z,21.77
2018-02-13T17:11:03.198Z,25.95
2018-02-13T17:13:30.727Z,29.53
2018-02-13T17:15:59.004Z,31.27
2018-02-13T17:18:27.516Z,29.07
2018-02-13T17:20:56.481Z,34.13
2018-02-13T17:23:24.760Z,34.03
2018-02-13T17:25:53.028Z,26.77
2018-02-13T17:28:20.554Z,37.35
2018-02-13T17:30:48.081Z,30.37
2018-02-13T17:33:15.611Z,33.08
2018-02-13T17:35:43.165Z,28.27
2018-02-13T17:38:10.675Z,30.77
2018-02-13T17:40:38.222Z,34.38
2018-02-13T17:43:05.797Z,29.30
2018-02-13T17:45:34.108Z,39.65
2018-02-13T17:48:01.644Z,45.47
2018-02-13T17:50:29.908Z,33.72
2018-02-13T17:52:57.417Z,37.83
2018-02-13T17:55:24.997Z,39.05
2018-02-13T17:57:52.550Z,33.47
2018-02-13T18:00:20.078Z,35.83
2018-02-13T18:02:48.355Z,27.80
2018-02-13T18:05:16.634Z,30.73
2018-02-13T18:07:44.296Z,37.25
2018-02-13T18:10:12.572Z,31.90
2018-02-13T18:12:40.941Z,26.40
2018-02-13T18:15:08.499Z,27.25
2018-02-13T18:17:36.572Z,31.20
2018-02-13T18:20:04.097Z,29.33
2018-02-13T18:22:31.596Z,33.55
2018-02-13T18:24:59.156Z,33.55
2018-02-13T18:27:26.965Z,34.42
2018-02-13T18:29:55.403Z,32.75
2018-02-13T18:32:23.082Z,39.63
2018-02-13T18:34:50.650Z,44.47
2018-02-13T18:37:18.157Z,28.73
2018-02-13T18:39:46.772Z,34.00
2018-02-13T18:42:14.375Z,30.75
2018-02-13T18:44:41.860Z,36.47
2018-02-13T18:47:10.135Z,37.60
2018-02-13T18:49:38.437Z,38.03
2018-02-13T18:52:05.947Z,32.70
2018-02-13T18:54:33.460Z,33.38
2018-02-13T18:57:01.750Z,34.75
2018-02-13T18:59:29.264Z,60.17
2018-02-13T19:01:56.777Z,54.95
2018-02-13T19:04:25.020Z,32.53
2018-02-13T19:06:53.347Z,40.17
2018-02-13T19:09:21.717Z,31.60
2018-02-13T19:11:49.235Z,29.60
2018-02-13T19:14:16.767Z,30.92
2018-02-13T19:19:12.606Z,34.53
2018-02-13T19:21:40.169Z,28.27
2018-02-13T19:24:07.693Z,37.78
2018-02-13T19:26:35.211Z,39.95
2018-02-13T19:29:02.756Z,31.35
2018-02-13T19:31:30.272Z,35.35
2018-02-13T19:33:57.863Z,31.98
2018-02-13T19:36:26.155Z,39.90
2018-02-13T19:38:54.515Z,44.85
2018-02-13T19:41:22.779Z,75.53
2018-02-13T19:43:50.352Z,35.17
2018-02-13T19:46:17.880Z,41.78
2018-02-13T19:48:45.417Z,38.50
2018-02-13T19:51:12.939Z,41.30
2018-02-13T19:53:40.562Z,30.62
2018-02-13T19:56:08.059Z,35.53
2018-02-13T19:58:35.578Z,33.97
2018-02-13T20:01:03.097Z,37.75
2018-02-13T20:03:30.632Z,38.08
2018-02-13T20:05:58.600Z,36.85
2018-02-13T20:08:26.124Z,27.77
2018-02-13T20:10:53.787Z,38.83
2018-02-13T20:13:22.078Z,41.20
2018-02-13T20:15:49.694Z,43.70
2018-02-13T20:18:17.213Z,35.67
2018-02-13T20:20:44.742Z,38.50
2018-02-13T20:23:12.268Z,36.42
2018-02-13T20:25:39.830Z,43.10
2018-02-13T20:28:07.441Z,36.13
2018-02-13T20:30:34.952Z,38.65
2018-02-13T20:33:02.472Z,50.17
2018-02-13T20:35:35.696Z,41.70
2018-02-13T20:38:03.598Z,36.50
2018-02-13T20:40:32.076Z,35.80
2018-02-13T20:42:59.722Z,37.88
2018-02-13T20:45:27.276Z,29.30
2018-02-13T20:47:55.897Z,31.33
2018-02-13T20:50:25.617Z,26.48
2018-02-13T20:52:53.280Z,36.25
2018-02-13T20:55:21.314Z,32.30
2018-02-13T20:57:49.590Z,35.42
2018-02-13T21:00:18.086Z,29.17
2018-02-13T21:02:46.428Z,30.30
2018-02-13T21:05:14.261Z,28.65
2018-02-13T21:07:41.786Z,32.22
2018-02-13T21:10:10.100Z,37.03
2018-02-13T21:12:37.617Z,28.35
2018-02-13T21:15:05.949Z,44.30
2018-02-13T21:17:35.134Z,35.03
2018-02-13T21:20:03.280Z,31.17
2018-02-13T21:22:31.035Z,23.33
2018-02-13T21:24:58.919Z,34.50
2018-02-13T21:27:26.487Z,24.83
2018-02-13T21:29:55.552Z,33.30
2018-02-13T21:32:23.167Z,43.55
2018-02-13T21:34:50.801Z,33.00
2018-02-13T21:37:20.542Z,57.70
2018-02-13T21:39:48.907Z,32.35
2018-02-13T21:42:17.490Z,48.50
2018-02-13T21:44:44.985Z,73.20
2018-02-13T21:47:13.394Z,28.75
2018-02-13T21:49:41.909Z,35.08
2018-02-13T21:52:09.424Z,27.25
2018-02-13T21:54:36.920Z,24.23
2018-02-13T21:57:04.496Z,34.78
2018-02-13T21:59:31.993Z,24.08
2018-02-13T22:02:00.269Z,38.10
2018-02-13T22:04:27.812Z,33.05
2018-02-13T22:06:55.945Z,27.55
2018-02-13T22:09:23.443Z,33.63
2018-02-13T22:11:50.977Z,26.92
2018-02-13T22:14:18.812Z,25.40
2018-02-13T22:16:46.350Z,31.62
2018-02-13T22:19:13.884Z,30.77
2018-02-13T22:21:41.547Z,30.65
2018-02-13T22:24:11.089Z,29.33
2018-02-13T22:26:38.611Z,22.25
2018-02-13T22:29:06.236Z,27.65
2018-02-13T22:31:33.734Z,24.98
2018-02-13T22:34:01.254Z,25.98
2018-02-13T22:36:28.748Z,23.35
2018-02-13T22:38:58.044Z,31.00
2018-02-13T22:41:26.324Z,30.23
2018-02-13T22:43:54.602Z,33.67
2018-02-13T22:46:22.116Z,25.85
2018-02-13T22:48:49.617Z,26.17
2018-02-13T22:51:17.130Z,33.13
2018-02-13T22:53:44.652Z,28.42
2018-02-13T22:56:12.959Z,22.95
2018-02-13T22:58:40.472Z,24.40
2018-02-13T23:01:07.982Z,32.85
2018-02-13T23:03:35.540Z,31.15
2018-02-13T23:06:03.806Z,32.95
2018-02-13T23:08:32.141Z,25.52
2018-02-13T23:10:59.645Z,29.15
2018-02-13T23:13:27.148Z,26.75
2018-02-13T23:15:54.674Z,18.70
2018-02-13T23:18:22.973Z,21.75
2018-02-13T23:20:52.527Z,26.98
2018-02-13T23:23:20.021Z,27.58
2018-02-13T23:25:47.520Z,25.23
2018-02-13T23:28:15.049Z,28.15
2018-02-13T23:30:42.595Z,22.00
2018-02-13T23:33:10.087Z,34.10
2018-02-13T23:35:38.362Z,25.80
2018-02-13T23:38:05.885Z,23.20
2018-02-13T23:40:33.383Z,22.70
2018-02-13T23:43:01.690Z,27.55
2018-02-13T23:45:29.983Z,23.17
2018-02-13T23:47:57.504Z,28.48
2018-02-13T23:50:25.011Z,26.23
2018-02-13T23:52:52.520Z,34.50
2018-02-13T23:55:20.031Z,23.98
2018-02-13T23:57:47.555Z,26.30
